Time;durP1;ratioP1;P1;durP2;ratioP2;P2;SDS_P1;SDS_P2;PMS_P1;PMS_P2;Temp;Humidity;BMP_temperature;BMP_pressure;BME280_temperature;BME280_humidity;BME280_pressure;Samples;Min_cycle;Max_cycle;Signal;HPM_P1;HPM_P2
2021/12/06 00:01:46;;;;;;;100.70;54.50;;;;;;;2.37;86.32;97493.31;103395;1322;22643;-87
2021/12/06 00:04:17;;;;;;;109.50;58.80;;;;;;;2.36;86.16;97493.90;103652;1317;137975;-84
2021/12/06 00:06:49;;;;;;;104.90;54.70;;;;;;;2.34;85.84;97490.81;103670;1315;22912;-88
2021/12/06 00:09:21;;;;;;;105.20;54.60;;;;;;;2.32;85.72;97489.02;103288;1316;138533;-88
2021/12/06 00:11:56;;;;;;;103.30;53.50;;;;;;;2.31;85.89;97484.59;103793;1315;22647;-88
2021/12/06 00:14:37;;;;;;;103.90;54.20;;;;;;;2.29;85.68;97484.84;103630;1316;22572;-89
2021/12/06 00:17:14;;;;;;;106.40;53.90;;;;;;;2.25;85.72;97478.84;103350;1316;137908;-89
2021/12/06 00:19:44;;;;;;;108.80;58.70;;;;;;;2.17;85.41;97470.41;103635;1317;22613;-90
2021/12/06 00:22:15;;;;;;;104.00;56.60;;;;;;;2.14;85.35;97474.27;103692;1316;138546;-87
2021/12/06 00:24:45;;;;;;;110.50;57.40;;;;;;;2.12;85.17;97475.98;103726;1317;22615;-90
2021/12/06 00:27:12;;;;;;;105.60;58.80;;;;;;;2.02;84.76;97480.13;103742;1317;137893;-90
2021/12/06 00:29:40;;;;;;;107.50;58.10;;;;;;;1.92;85.06;97485.25;103735;1315;22584;-91
2021/12/06 00:32:10;;;;;;;114.00;60.10;;;;;;;1.89;85.73;97483.34;103459;1322;22653;-90
2021/12/06 00:34:41;;;;;;;120.50;61.80;;;;;;;1.89;85.91;97482.17;103462;1319;138265;-91
2021/12/06 00:37:18;;;;;;;116.90;61.40;;;;;;;1.91;85.90;97479.11;103783;1318;24077;-90
2021/12/06 00:39:52;;;;;;;114.30;60.00;;;;;;;1.93;85.96;97475.44;103762;1317;139068;-90
2021/12/06 00:42:23;;;;;;;117.00;59.60;;;;;;;1.95;85.81;97476.11;103893;1314;22664;-90
2021/12/06 00:44:54;;;;;;;112.90;60.10;;;;;;;1.95;85.94;97473.01;103577;1314;22611;-90
2021/12/06 00:47:22;;;;;;;120.00;60.60;;;;;;;1.95;85.88;97479.45;103649;1318;137487;-91
2021/12/06 00:49:51;;;;;;;111.30;59.00;;;;;;;1.96;85.63;97477.34;103503;1315;22887;-89
2021/12/06 00:52:19;;;;;;;108.10;54.00;;;;;;;1.97;85.74;97481.84;103283;1322;138023;-89
2021/12/06 00:54:49;;;;;;;106.20;54.70;;;;;;;1.98;85.68;97481.50;103921;1319;23142;-90
2021/12/06 00:57:19;;;;;;;105.90;56.50;;;;;;;1.99;85.67;97478.86;103304;1324;138367;-90
2021/12/06 00:59:46;;;;;;;113.60;58.70;;;;;;;1.98;85.55;97479.52;103543;1317;22654;-88
2021/12/06 01:02:15;;;;;;;115.70;61.30;;;;;;;1.99;85.71;97481.09;103740;1321;22626;-90
2021/12/06 01:04:48;;;;;;;110.00;58.90;;;;;;;1.97;85.65;97476.05;103736;1321;138733;-90
2021/12/06 01:07:17;;;;;;;114.50;57.80;;;;;;;2.00;85.59;97477.90;103393;1325;22722;-89
2021/12/06 01:09:47;;;;;;;101.40;53.70;;;;;;;2.01;85.50;97474.96;103700;1320;138026;-89
2021/12/06 01:12:15;;;;;;;114.20;59.40;;;;;;;2.02;85.46;97473.92;103503;1323;24292;-88
2021/12/06 01:14:44;;;;;;;;;;;;;;;2.01;85.41;97466.52;103573;1318;22665;-89
2021/12/06 01:17:12;;;;;;;105.40;55.40;;;;;;;1.99;85.25;97469.89;103425;1316;123811;-89
2021/12/06 01:19:39;;;;;;;109.00;56.00;;;;;;;1.94;85.02;97472.20;103387;1317;22626;-89
2021/12/06 01:22:20;;;;;;;118.30;59.80;;;;;;;1.90;85.06;97481.66;103393;1322;138563;-89
2021/12/06 01:25:05;;;;;;;108.20;56.60;;;;;;;1.87;85.02;97485.23;103660;1319;25373;-88
2021/12/06 01:30:29;;;;;;;118.40;59.30;;;;;;;1.83;85.32;97502.06;103771;1315;22569;-88
2021/12/06 01:41:16;;;;;;;115.50;61.40;;;;;;;1.80;85.16;97469.03;103228;1322;138217;-87
2021/12/06 01:44:08;;;;;;;117.20;61.10;;;;;;;1.76;85.13;97465.95;103651;1316;22892;-87
2021/12/06 01:46:49;;;;;;;119.90;62.90;;;;;;;1.76;85.51;97463.11;103242;1318;137688;-86
2021/12/06 01:49:19;;;;;;;130.30;65.20;;;;;;;1.74;85.25;97457.02;103388;1322;22716;-87
2021/12/06 01:51:48;;;;;;;124.50;64.20;;;;;;;1.71;85.18;97456.44;103446;1316;138929;-86
2021/12/06 01:54:19;;;;;;;120.60;63.30;;;;;;;1.69;85.24;97449.97;103466;1320;22717;-87
2021/12/06 01:56:49;;;;;;;123.10;62.90;;;;;;;1.68;85.49;97454.80;103532;1316;22742;-86
2021/12/06 01:59:18;;;;;;;126.60;63.00;;;;;;;1.70;85.52;97459.67;103431;1317;137621;-86
2021/12/06 02:01:47;;;;;;;130.10;64.80;;;;;;;1.70;85.36;97463.98;103632;1316;22819;-87
2021/12/06 02:04:14;;;;;;;135.70;68.50;;;;;;;1.70;85.50;97465.36;103339;1321;138368;-86
2021/12/06 02:06:45;;;;;;;128.30;65.80;;;;;;;1.70;85.34;97464.58;103512;1318;25506;-86
2021/12/06 02:09:17;;;;;;;125.20;65.10;;;;;;;1.71;85.44;97466.25;103377;1315;138531;-86
2021/12/06 02:11:47;;;;;;;125.80;63.00;;;;;;;1.71;85.36;97460.64;103551;1322;25400;-86
2021/12/06 02:17:04;;;;;;;125.40;64.90;;;;;;;1.72;85.56;97458.12;103336;1320;137797;-87
2021/12/06 02:19:39;;;;;;;138.90;66.20;;;;;;;1.69;85.29;97456.56;103426;1322;22652;-86
2021/12/06 02:22:09;;;;;;;130.00;65.20;;;;;;;1.66;85.44;97464.83;103608;1315;138763;-87
2021/12/06 02:24:39;;;;;;;129.60;63.80;;;;;;;1.65;85.27;97478.50;103422;1318;22634;-86
2021/12/06 02:27:11;;;;;;;124.70;64.00;;;;;;;1.64;85.41;97482.64;103484;1315;138051;-86
2021/12/06 02:29:40;;;;;;;130.40;65.20;;;;;;;1.65;85.65;97488.00;103884;1316;22611;-86
2021/12/06 02:32:12;;;;;;;122.20;64.10;;;;;;;1.68;85.85;97486.59;103552;1316;22590;-87
2021/12/06 02:34:44;;;;;;;137.40;66.80;;;;;;;1.69;85.81;97489.43;103341;1319;138070;-86
2021/12/06 02:37:17;;;;;;;126.50;65.20;;;;;;;1.70;85.60;97485.60;103488;1322;22728;-87
2021/12/06 02:39:45;;;;;;;126.50;65.70;;;;;;;1.69;85.53;97483.86;103684;1317;138198;-87
2021/12/06 02:42:15;;;;;;;132.20;66.70;;;;;;;1.69;85.65;97482.17;103545;1316;25325;-87
2021/12/06 02:44:46;;;;;;;125.40;63.90;;;;;;;1.68;85.67;97478.45;103410;1316;24253;-87
2021/12/06 02:47:16;;;;;;;133.30;68.10;;;;;;;1.68;85.58;97475.11;103287;1317;137640;-87
2021/12/06 02:49:44;;;;;;;130.30;66.90;;;;;;;1.69;85.47;97483.05;103551;1315;22574;-87
2021/12/06 02:52:14;;;;;;;130.80;66.90;;;;;;;1.68;85.36;97495.02;103563;1315;138922;-87
2021/12/06 02:54:42;;;;;;;141.90;69.70;;;;;;;1.69;85.66;97496.96;103560;1315;22575;-87
2021/12/06 02:59:45;;;;;;;139.40;69.40;;;;;;;1.71;85.78;97491.70;103413;1316;23264;-87
2021/12/06 03:02:14;;;;;;;;;;;;;;;1.68;85.60;97491.59;103776;1318;22709;-87
2021/12/06 03:04:43;;;;;;;134.20;64.00;;;;;;;1.66;85.72;97492.87;103209;1320;125312;-87
2021/12/06 03:07:10;;;;;;;129.20;63.40;;;;;;;1.65;85.76;97492.66;103382;1322;22603;-87
2021/12/06 03:09:40;;;;;;;143.20;67.00;;;;;;;1.66;85.72;97492.13;103489;1318;138272;-87
2021/12/06 03:12:15;;;;;;;135.70;65.60;;;;;;;1.66;85.79;97487.00;103594;1316;22596;-86
2021/12/06 03:14:49;;;;;;;135.40;67.90;;;;;;;1.66;85.74;97486.96;103603;1322;22593;-87
2021/12/06 03:17:20;;;;;;;150.30;72.60;;;;;;;1.66;85.80;97484.38;103453;1322;138269;-87
2021/12/06 03:19:50;;;;;;;134.10;66.70;;;;;;;1.62;85.53;97486.31;103454;1322;25256;-87
2021/12/06 03:22:19;;;;;;;131.70;65.70;;;;;;;1.61;85.59;97486.15;103583;1319;138026;-87
2021/12/06 03:24:49;;;;;;;136.50;67.20;;;;;;;1.57;85.36;97483.79;103446;1321;22724;-87
2021/12/06 03:27:18;;;;;;;129.30;64.30;;;;;;;1.55;85.75;97485.27;103353;1315;138036;-87
2021/12/06 03:29:46;;;;;;;141.70;68.30;;;;;;;1.50;85.30;97479.34;103362;1322;22650;-87
2021/12/06 03:32:14;;;;;;;155.20;72.10;;;;;;;1.44;85.44;97480.40;103450;1320;22777;-87
2021/12/06 03:34:56;;;;;;;140.00;66.70;;;;;;;1.39;85.64;97480.85;103331;1320;138407;-87
2021/12/06 03:37:23;;;;;;;151.50;71.40;;;;;;;1.39;85.92;97478.55;103506;1322;22572;-88
2021/12/06 03:39:51;;;;;;;148.20;69.90;;;;;;;1.38;85.76;97470.63;103585;1315;138509;-86
2021/12/06 03:42:24;;;;;;;141.30;67.70;;;;;;;1.38;86.18;97462.64;103413;1315;24373;-87
2021/12/06 03:44:54;;;;;;;153.30;70.30;;;;;;;1.38;86.02;97458.34;103525;1315;23973;-87
2021/12/06 03:47:25;;;;;;;159.90;73.30;;;;;;;1.33;85.87;97462.25;103349;1323;137889;-87
2021/12/06 03:49:53;;;;;;;155.90;70.90;;;;;;;1.23;85.83;97464.93;103481;1321;22557;-87
2021/12/06 03:52:22;;;;;;;160.70;69.90;;;;;;;1.17;85.68;97463.82;103329;1319;138594;-87
2021/12/06 03:54:50;;;;;;;149.70;67.30;;;;;;;1.12;86.11;97466.98;103366;1318;25344;-88
2021/12/06 03:57:19;;;;;;;147.30;69.70;;;;;;;1.07;86.18;97468.83;103332;1316;138434;-88
2021/12/06 03:59:48;;;;;;;152.80;70.80;;;;;;;1.00;86.53;97467.60;103582;1322;24321;-88
2021/12/06 04:02:19;;;;;;;165.70;72.90;;;;;;;1.01;87.16;97464.14;103807;1316;22599;-88
2021/12/06 04:04:46;;;;;;;165.60;72.40;;;;;;;1.03;87.09;97460.23;103310;1319;138518;-89
2021/12/06 04:07:14;;;;;;;148.60;69.90;;;;;;;1.04;86.76;97463.73;103582;1316;24281;-89
2021/12/06 04:09:58;;;;;;;149.10;70.20;;;;;;;1.01;86.75;97468.76;103421;1320;137765;-88
2021/12/06 04:12:26;;;;;;;;;;;;;;;0.99;87.28;97474.48;103604;1318;22561;-88
2021/12/06 04:14:54;;;;;;;159.60;71.90;;;;;;;1.00;87.44;97472.73;103442;1321;22577;-89
2021/12/06 04:17:23;;;;;;;155.90;72.70;;;;;;;1.04;87.63;97468.31;103489;1316;138059;-89
2021/12/06 04:19:50;;;;;;;140.30;69.30;;;;;;;1.06;87.51;97471.65;103601;1316;25255;-89
2021/12/06 04:22:19;;;;;;;162.40;73.20;;;;;;;1.05;87.34;97476.11;103394;1319;138652;-90
2021/12/06 04:24:49;;;;;;;152.30;70.20;;;;;;;1.04;87.54;97488.14;103542;1316;23500;-87
2021/12/06 04:27:18;;;;;;;164.40;73.50;;;;;;;1.08;87.99;97501.66;103466;1320;138187;-88
2021/12/06 04:29:49;;;;;;;167.40;75.20;;;;;;;1.16;88.20;97506.69;103739;1316;22583;-88
2021/12/06 04:32:20;;;;;;;159.80;70.30;;;;;;;1.22;88.01;97494.64;103546;1319;22644;-87
2021/12/06 04:34:51;;;;;;;166.00;71.80;;;;;;;1.26;87.83;97488.15;103455;1321;138227;-88
2021/12/06 04:37:19;;;;;;;160.50;75.30;;;;;;;1.23;87.26;97506.27;103715;1318;25267;-87
2021/12/06 04:39:46;;;;;;;149.50;71.70;;;;;;;1.21;87.66;97535.86;103449;1321;138514;-88
2021/12/06 04:42:14;;;;;;;164.90;77.50;;;;;;;1.24;87.99;97536.30;103602;1316;25355;-87
2021/12/06 04:44:43;;;;;;;159.60;73.50;;;;;;;1.27;87.85;97523.84;103508;1317;22596;-86
2021/12/06 04:47:14;;;;;;;145.60;70.00;;;;;;;1.29;87.81;97512.66;103404;1322;197191;-86
2021/12/06 04:49:41;;;;;;;145.40;67.80;;;;;;;1.29;87.46;97511.95;103442;1322;22764;-88
2021/12/06 04:52:12;;;;;;;142.10;65.50;;;;;;;1.26;87.31;97511.75;103478;1315;138464;-87
2021/12/06 04:54:45;;;;;;;151.20;68.70;;;;;;;1.19;87.02;97517.45;103594;1315;22667;-87
2021/12/06 04:57:27;;;;;;;163.80;73.30;;;;;;;1.13;87.27;97527.33;103400;1320;138520;-87
2021/12/06 04:59:57;;;;;;;;;;;;;;;1.09;87.42;97528.27;103495;1315;22714;-87
2021/12/06 05:02:33;;;;;;;139.70;64.60;;;;;;;1.07;87.80;97524.57;103531;1318;22684;-88
2021/12/06 05:05:07;;;;;;;138.90;64.10;;;;;;;1.07;87.94;97531.16;103333;1315;138250;-88
2021/12/06 05:07:43;;;;;;;144.80;65.50;;;;;;;1.04;87.59;97532.65;103186;1322;22589;-86
2021/12/06 05:10:13;;;;;;;139.60;66.90;;;;;;;0.99;87.55;97542.05;103528;1315;138082;-88
2021/12/06 05:12:43;;;;;;;150.50;69.90;;;;;;;0.97;88.12;97540.89;103512;1321;25284;-87
2021/12/06 05:15:14;;;;;;;145.90;67.40;;;;;;;1.02;88.59;97535.41;103425;1316;139125;-87
2021/12/06 05:17:44;;;;;;;140.00;64.20;;;;;;;1.08;88.29;97531.53;103574;1318;23795;-88
2021/12/06 05:20:13;;;;;;;121.40;61.80;;;;;;;1.11;88.24;97532.83;103671;1316;24322;-88
2021/12/06 05:22:44;;;;;;;130.80;61.20;;;;;;;1.13;88.29;97540.80;103693;1316;137984;-88
2021/12/06 05:25:13;;;;;;;133.90;63.50;;;;;;;1.16;88.38;97550.83;103665;1320;22591;-87
2021/12/06 05:27:44;;;;;;;126.70;61.70;;;;;;;1.19;88.27;97556.52;103447;1318;138658;-87
2021/12/06 05:30:15;;;;;;;126.30;60.00;;;;;;;1.24;88.54;97561.27;103765;1322;23120;-88
2021/12/06 05:32:43;;;;;;;121.40;57.20;;;;;;;1.28;88.49;97560.06;103484;1318;24327;-88
2021/12/06 05:35:11;;;;;;;113.30;56.00;;;;;;;1.33;88.27;97565.55;103274;1322;137897;-87
2021/12/06 05:37:42;;;;;;;122.80;57.50;;;;;;;1.38;88.55;97562.13;103607;1322;22679;-88
2021/12/06 05:40:15;;;;;;;128.90;61.70;;;;;;;1.41;88.27;97565.94;103467;1315;140970;-88
2021/12/06 05:42:42;;;;;;;118.50;59.20;;;;;;;1.46;88.40;97568.05;103738;1317;22581;-88
2021/12/06 05:45:11;;;;;;;123.00;56.30;;;;;;;1.52;88.16;97567.80;103369;1319;22654;-88
2021/12/06 05:47:38;;;;;;;123.20;58.30;;;;;;;1.55;88.12;97566.18;103705;1316;25336;-89
2021/12/06 05:50:06;;;;;;;115.30;56.90;;;;;;;1.59;87.97;97565.67;103668;1321;24335;-88
2021/12/06 05:52:33;;;;;;;120.20;59.20;;;;;;;1.57;87.71;97564.61;103425;1318;137791;-89
2021/12/06 05:55:01;;;;;;;125.20;60.20;;;;;;;1.58;88.05;97564.11;103540;1316;22693;-88
2021/12/06 05:57:29;;;;;;;123.40;60.30;;;;;;;1.62;88.03;97563.44;103417;1316;139185;-88
2021/12/06 05:59:56;;;;;;;116.80;56.00;;;;;;;1.67;87.98;97562.30;103723;1318;22906;-87
2021/12/06 06:02:23;;;;;;;120.50;59.40;;;;;;;1.71;87.78;97564.65;103925;1314;22620;-88
2021/12/06 06:04:50;;;;;;;123.00;58.80;;;;;;;1.70;87.40;97569.09;103439;1320;137952;-88
2021/12/06 06:07:17;;;;;;;129.50;65.90;;;;;;;1.68;87.40;97577.41;103515;1316;24557;-87
2021/12/06 06:09:44;;;;;;;142.40;68.10;;;;;;;1.67;87.45;97576.02;103645;1315;138235;-87
2021/12/06 06:12:12;;;;;;;138.10;65.60;;;;;;;1.67;87.52;97572.88;103504;1317;25267;-88
2021/12/06 06:14:39;;;;;;;143.30;68.60;;;;;;;1.68;87.25;97568.80;103365;1315;22630;-88
2021/12/06 06:17:12;;;;;;;143.50;70.30;;;;;;;1.68;87.29;97570.31;103518;1319;137766;-88
2021/12/06 06:19:49;;;;;;;141.10;66.70;;;;;;;1.62;86.72;97571.23;104244;1316;25255;-88
2021/12/06 06:22:17;;;;;;;136.70;64.60;;;;;;;1.50;86.64;97573.45;103389;1316;137771;-88
2021/12/06 06:24:44;;;;;;;145.50;68.70;;;;;;;1.42;86.86;97576.02;103907;1315;24369;-87
2021/12/06 06:27:11;;;;;;;151.90;67.90;;;;;;;1.34;87.02;97576.52;104067;1314;22588;-88
2021/12/06 06:29:38;;;;;;;147.20;66.50;;;;;;;1.34;87.72;97576.52;103740;1315;138797;-88
2021/12/06 06:32:07;;;;;;;142.20;67.80;;;;;;;1.38;87.88;97581.35;103798;1315;24278;-88
2021/12/06 06:34:34;;;;;;;144.20;67.70;;;;;;;1.42;88.04;97588.36;103942;1316;138709;-88
2021/12/06 06:37:03;;;;;;;141.30;67.80;;;;;;;1.46;88.03;97592.04;103582;1316;22596;-88
2021/12/06 06:39:30;;;;;;;142.70;67.20;;;;;;;1.50;87.81;97596.27;103761;1317;140541;-88
2021/12/06 06:41:57;;;;;;;133.60;65.40;;;;;;;1.52;87.51;97599.83;103858;1318;22743;-88
2021/12/06 06:44:24;;;;;;;126.60;61.60;;;;;;;1.51;87.40;97602.88;103819;1315;24235;-88
2021/12/06 06:46:51;;;;;;;130.20;61.80;;;;;;;1.53;87.70;97608.08;104162;1315;139561;-88
2021/12/06 06:49:19;;;;;;;126.10;59.60;;;;;;;1.57;87.78;97615.42;103569;1316;24231;-88
2021/12/06 06:51:46;;;;;;;129.40;62.20;;;;;;;1.61;87.88;97621.81;103490;1315;138350;-87
2021/12/06 06:54:15;;;;;;;121.40;61.30;;;;;;;1.65;87.59;97625.11;103558;1315;22603;-88
2021/12/06 06:56:42;;;;;;;123.00;59.40;;;;;;;1.69;87.78;97625.02;103479;1317;22599;-88
2021/12/06 06:59:09;;;;;;;123.80;60.30;;;;;;;1.72;87.60;97625.72;103501;1321;137805;-88
2021/12/06 07:01:37;;;;;;;122.70;61.00;;;;;;;1.75;87.55;97624.48;103551;1317;22629;-88
2021/12/06 07:04:04;;;;;;;127.30;62.20;;;;;;;1.78;87.64;97639.99;103464;1316;137934;-89
2021/12/06 07:06:31;;;;;;;137.30;65.70;;;;;;;1.79;87.53;97644.99;104006;1316;22638;-88
2021/12/06 07:08:59;;;;;;;140.60;62.40;;;;;;;1.79;87.15;97646.23;103745;1316;22594;-88
2021/12/06 07:11:27;;;;;;;125.80;60.50;;;;;;;1.81;87.35;97649.62;104009;1315;138320;-89
2021/12/06 07:13:55;;;;;;;125.80;61.70;;;;;;;1.83;87.25;97653.79;104097;1315;24253;-88
2021/12/06 07:16:37;;;;;;;121.80;60.50;;;;;;;1.84;87.26;97651.48;103520;1318;138789;-88
2021/12/06 07:19:04;;;;;;;133.90;63.90;;;;;;;1.85;87.12;97656.14;103418;1316;22778;-88
2021/12/06 07:21:32;;;;;;;122.50;60.30;;;;;;;1.86;86.95;97657.87;103684;1316;138965;-88
2021/12/06 07:23:59;;;;;;;129.90;62.10;;;;;;;1.87;86.92;97661.63;103726;1318;24308;-88
2021/12/06 07:26:26;;;;;;;136.50;61.20;;;;;;;1.90;87.00;97662.70;103843;1316;24327;-88
2021/12/06 07:28:56;;;;;;;125.60;61.70;;;;;;;1.92;86.99;97664.88;103557;1321;137896;-88
2021/12/06 07:31:24;;;;;;;134.00;61.90;;;;;;;1.92;86.83;97662.81;103994;1315;24717;-88
2021/12/06 07:33:53;;;;;;;142.20;65.20;;;;;;;1.92;86.52;97666.75;103776;1316;138058;-88
2021/12/06 07:36:25;;;;;;;120.40;59.90;;;;;;;1.90;86.50;97665.02;103571;1315;22721;-88
2021/12/06 07:38:52;;;;;;;135.30;58.50;;;;;;;1.88;86.22;97661.64;103948;1318;22709;-88
2021/12/06 07:41:21;;;;;;;129.80;60.00;;;;;;;1.87;86.44;97664.48;103803;1315;137902;-89
2021/12/06 07:43:49;;;;;;;126.40;60.10;;;;;;;1.87;86.40;97662.66;103801;1318;22632;-89
2021/12/06 07:46:16;;;;;;;126.10;59.40;;;;;;;1.86;86.20;97664.84;103894;1316;137940;-89
2021/12/06 07:48:45;;;;;;;137.00;60.30;;;;;;;1.82;86.12;97662.38;103901;1316;24273;-88
2021/12/06 07:51:12;;;;;;;121.70;58.30;;;;;;;1.82;86.34;97664.45;104197;1315;23458;-89
2021/12/06 07:53:40;;;;;;;120.30;54.50;;;;;;;1.84;86.14;97664.61;104395;1315;137992;-88
2021/12/06 07:56:07;;;;;;;111.60;54.20;;;;;;;1.85;86.28;97659.19;103955;1316;25426;-89
2021/12/06 07:58:34;;;;;;;125.10;58.60;;;;;;;1.88;86.21;97653.29;103780;1317;137824;-89
2021/12/06 08:01:02;;;;;;;118.40;55.40;;;;;;;1.90;86.21;97656.97;103568;1321;25294;-89
2021/12/06 08:03:31;;;;;;;124.00;57.80;;;;;;;1.89;86.09;97665.68;103565;1320;138769;-88
2021/12/06 08:05:59;;;;;;;120.20;56.20;;;;;;;1.90;86.05;97669.84;103966;1315;22593;-89
2021/12/06 08:08:30;;;;;;;116.20;55.80;;;;;;;1.93;85.98;97673.11;104011;1316;22736;-89
2021/12/06 08:11:05;;;;;;;122.20;59.40;;;;;;;1.96;86.17;97674.63;103698;1316;137977;-89
2021/12/06 08:13:34;;;;;;;129.20;61.20;;;;;;;2.00;86.13;97671.40;103878;1316;22586;-89
2021/12/06 08:16:07;;;;;;;129.10;62.40;;;;;;;2.03;86.05;97663.23;103940;1317;137932;-89
2021/12/06 08:18:34;;;;;;;138.30;65.20;;;;;;;2.05;85.76;97657.59;104039;1316;22576;-91
2021/12/06 08:21:03;;;;;;;138.70;65.80;;;;;;;2.03;85.37;97659.33;103750;1316;22624;-92
2021/12/06 08:23:31;;;;;;;131.50;61.90;;;;;;;1.96;84.87;97667.81;103790;1316;138628;-90
2021/12/06 08:25:59;;;;;;;123.00;61.10;;;;;;;1.88;85.12;97670.97;103937;1315;23427;-89
2021/12/06 08:28:28;;;;;;;125.70;60.90;;;;;;;1.87;85.71;97675.96;103771;1315;137942;-89
2021/12/06 08:30:55;;;;;;;123.70;59.90;;;;;;;1.91;86.16;97681.13;103703;1316;22584;-92
2021/12/06 08:33:35;;;;;;;127.20;60.20;;;;;;;1.95;86.18;97681.36;104055;1318;138202;-94
2021/12/06 08:36:07;;;;;;;116.70;56.60;;;;;;;1.97;85.79;97681.16;104052;1316;22668;-89
2021/12/06 08:38:36;;;;;;;121.20;56.90;;;;;;;1.93;85.39;97680.33;103558;1316;22587;-88
2021/12/06 08:41:21;;;;;;;125.70;58.50;;;;;;;1.85;85.31;97684.27;103953;1316;137984;-88
2021/12/06 08:43:48;;;;;;;140.80;61.70;;;;;;;1.81;85.88;97682.17;103470;1318;22601;-89
2021/12/06 08:46:21;;;;;;;139.90;66.20;;;;;;;1.82;86.22;97685.21;104048;1316;138260;-88
2021/12/06 08:48:50;;;;;;;141.30;66.80;;;;;;;1.84;86.26;97684.06;104017;1319;22747;-88
2021/12/06 08:51:30;;;;;;;129.70;59.50;;;;;;;1.86;86.07;97685.79;103662;1320;22592;-89
2021/12/06 08:54:01;;;;;;;123.90;60.80;;;;;;;1.88;86.05;97688.52;104014;1315;138078;-88
2021/12/06 08:56:29;;;;;;;125.40;60.70;;;;;;;1.91;86.06;97688.39;103601;1316;22591;-88
2021/12/06 08:58:57;;;;;;;133.00;62.60;;;;;;;1.86;85.72;97689.02;103995;1319;138534;-87
2021/12/06 09:01:29;;;;;;;130.50;62.50;;;;;;;1.81;85.58;97690.98;103702;1314;22600;-87
2021/12/06 09:04:12;;;;;;;132.20;60.80;;;;;;;1.73;85.92;97694.48;103310;1322;138248;-89
2021/12/06 09:06:42;;;;;;;125.00;59.60;;;;;;;1.72;86.32;97701.09;103523;1318;25674;-90
2021/12/06 09:09:12;;;;;;;126.30;60.20;;;;;;;1.74;86.63;97700.95;103674;1315;25310;-89
2021/12/06 09:11:40;;;;;;;;;;;;;;;1.78;86.71;97706.54;103468;1315;137889;-88
2021/12/06 09:14:08;;;;;;;120.00;57.50;;;;;;;1.78;86.65;97702.11;103587;1320;22773;-89
2021/12/06 09:16:37;;;;;;;123.10;61.40;;;;;;;1.76;86.45;97701.99;103946;1316;137788;-90
2021/12/06 09:22:08;;;;;;;106.00;54.30;;;;;;;1.80;86.90;97703.02;104036;1317;138846;-91
2021/12/06 09:24:35;;;;;;;107.10;52.90;;;;;;;1.88;86.99;97708.05;104255;1320;22631;-89
2021/12/06 09:27:04;;;;;;;99.80;51.00;;;;;;;1.93;86.99;97705.56;103262;1325;23180;-86
2021/12/06 09:29:36;;;;;;;122.10;54.80;;;;;;;1.99;86.99;97705.11;103431;1325;138354;-90
2021/12/06 09:32:09;;;;;;;95.90;48.30;;;;;;;2.07;87.08;97704.06;103862;1318;23259;-90
2021/12/06 09:34:39;;;;;;;93.00;44.40;;;;;;;2.15;87.12;97704.79;103420;1321;138267;-90
2021/12/06 09:37:07;;;;;;;84.60;45.80;;;;;;;2.23;87.07;97707.27;103303;1320;23315;-89
2021/12/06 09:39:35;;;;;;;76.40;40.20;;;;;;;2.29;86.98;97703.14;103288;1323;23262;-89
2021/12/06 09:42:18;;;;;;;78.90;40.10;;;;;;;2.33;86.47;97702.20;103170;1322;138305;-89
2021/12/06 09:44:47;;;;;;;86.90;41.40;;;;;;;2.34;86.47;97703.10;103149;1324;22587;-89
2021/12/06 09:47:14;;;;;;;78.60;38.90;;;;;;;2.34;86.19;97704.91;103125;1321;139246;-90
2021/12/06 09:49:41;;;;;;;72.90;36.80;;;;;;;2.32;85.87;97703.69;103111;1322;23062;-89
2021/12/06 09:52:09;;;;;;;65.30;31.90;;;;;;;2.30;85.87;97710.45;103502;1321;137900;-90
2021/12/06 09:54:40;;;;;;;81.70;40.40;;;;;;;2.23;85.61;97706.47;103199;1321;24431;-89
2021/12/06 09:57:09;;;;;;;76.10;37.10;;;;;;;2.19;86.20;97708.16;103230;1321;25222;-90
2021/12/06 09:59:40;;;;;;;82.00;40.40;;;;;;;2.20;86.60;97707.88;103298;1318;138451;-89
2021/12/06 10:02:11;;;;;;;74.40;38.40;;;;;;;2.24;86.78;97704.95;103403;1319;22586;-89
2021/12/06 10:04:44;;;;;;;62.50;34.90;;;;;;;2.29;86.55;97711.05;103345;1322;138660;-89
2021/12/06 10:07:12;;;;;;;67.20;34.50;;;;;;;2.32;86.55;97703.48;103534;1320;24291;-88
2021/12/06 10:09:44;;;;;;;61.90;31.70;;;;;;;2.37;86.41;97704.11;103371;1323;25429;-89
2021/12/06 10:12:13;;;;;;;60.80;31.80;;;;;;;2.37;86.02;97702.34;103666;1324;137831;-89
2021/12/06 10:14:42;;;;;;;57.20;29.70;;;;;;;2.34;86.28;97698.76;103508;1321;22685;-89
2021/12/06 10:17:10;;;;;;;56.90;29.40;;;;;;;2.30;86.08;97702.81;103283;1318;138687;-89
2021/12/06 10:19:38;;;;;;;53.80;27.70;;;;;;;2.26;86.09;97696.42;103557;1318;25345;-89
2021/12/06 10:22:05;;;;;;;51.00;24.30;;;;;;;2.20;85.92;97698.39;103591;1319;138741;-89
2021/12/06 10:24:33;;;;;;;56.70;28.80;;;;;;;2.14;86.47;97697.98;103694;1319;24327;-88
2021/12/06 10:27:19;;;;;;;45.30;22.70;;;;;;;2.13;86.97;97693.81;103613;1318;22603;-89
2021/12/06 10:29:53;;;;;;;38.20;20.60;;;;;;;2.11;86.82;97699.02;103718;1319;137687;-89
2021/12/06 10:32:25;;;;;;;24.10;12.70;;;;;;;2.09;86.84;97696.83;103693;1324;24429;-89
2021/12/06 10:35:14;;;;;;;19.30;10.50;;;;;;;2.05;86.52;97696.84;103530;1322;138404;-88
2021/12/06 10:37:57;;;;;;;19.20;8.90;;;;;;;1.96;86.59;97693.83;103718;1322;22362;-89
2021/12/06 10:40:31;;;;;;;17.80;8.10;;;;;;;1.89;86.90;97698.76;103475;1317;137591;-89
2021/12/06 10:43:04;;;;;;;19.10;9.20;;;;;;;1.83;86.93;97702.44;103503;1319;22630;-90
2021/12/06 10:45:48;;;;;;;21.60;10.30;;;;;;;1.76;86.96;97704.80;103665;1320;26530;-90
2021/12/06 10:48:37;;;;;;;19.90;10.10;;;;;;;1.71;87.32;97706.70;103675;1318;138222;-89
2021/12/06 10:51:10;;;;;;;19.90;10.20;;;;;;;1.69;87.69;97707.52;103843;1316;24408;-91
2021/12/06 10:53:43;;;;;;;21.20;11.00;;;;;;;1.67;87.77;97708.84;103903;1318;137936;-89
2021/12/06 10:56:20;;;;;;;25.40;14.00;;;;;;;1.65;87.86;97708.01;103768;1319;22721;-89
2021/12/06 10:58:53;;;;;;;23.50;12.00;;;;;;;1.67;88.08;97708.92;103568;1319;138751;-89
2021/12/06 11:01:24;;;;;;;19.40;11.90;;;;;;;1.67;88.03;97711.16;103286;1324;24351;-90
2021/12/06 11:03:53;;;;;;;20.70;10.20;;;;;;;1.67;87.91;97712.39;103210;1317;22609;-88
2021/12/06 11:06:26;;;;;;;22.10;10.80;;;;;;;1.68;88.13;97710.78;103244;1319;137473;-90
2021/12/06 11:08:56;;;;;;;24.50;12.00;;;;;;;1.64;88.22;97713.55;103362;1320;24224;-89
2021/12/06 11:11:28;;;;;;;22.40;11.70;;;;;;;1.62;88.25;97713.30;103373;1323;137710;-90
2021/12/06 11:14:03;;;;;;;21.80;12.10;;;;;;;1.61;88.24;97710.63;103432;1321;25417;-90
2021/12/06 11:16:34;;;;;;;31.20;12.90;;;;;;;1.61;88.48;97710.05;103594;1321;138605;-90
2021/12/06 11:19:04;;;;;;;23.50;12.00;;;;;;;1.64;88.47;97709.55;103731;1319;23328;-90
2021/12/06 11:21:39;;;;;;;23.90;11.70;;;;;;;1.65;88.49;97712.43;103818;1318;22813;-90
2021/12/06 11:24:11;;;;;;;19.20;9.80;;;;;;;1.64;88.57;97721.89;103627;1317;138034;-90
2021/12/06 11:27:00;;;;;;;19.30;11.00;;;;;;;1.62;88.34;97721.72;103759;1317;22734;-90
2021/12/06 11:29:42;;;;;;;23.50;13.20;;;;;;;1.61;88.42;97722.10;103595;1318;138268;-89
2021/12/06 11:32:45;;;;;;;23.10;11.30;;;;;;;1.60;88.29;97723.33;103694;1318;23552;-90
2021/12/06 11:35:22;;;;;;;21.50;11.20;;;;;;;1.56;88.27;97725.93;103670;1318;137713;-89
2021/12/06 11:37:54;;;;;;;27.40;15.30;;;;;;;1.50;88.45;97726.30;103705;1316;25370;-88
2021/12/06 11:40:33;;;;;;;27.60;14.80;;;;;;;1.45;88.46;97726.66;103331;1322;138690;-90
2021/12/06 11:43:17;;;;;;;29.20;14.80;;;;;;;1.41;88.59;97726.86;103213;1320;22618;-89
2021/12/06 11:45:56;;;;;;;24.90;13.70;;;;;;;1.38;88.67;97725.54;103716;1318;23946;-90